KPGV

Pitt-Greenville Airport

Greenville, North Carolina, USA
METAR KPGV 200100Z AUTO 00000KT 10SM CLR 03/M05 A3016 RMK AO2
Observed Flight Rules
Jan-20 @ 01:00 UTC (20 minutes ago) Visual Flight Rules
Wind Visibility Clouds
Calm 10 miles
  • Clear skies
Temperatures Readings
Current 3°C / 37°F
Dewpoint -5°C / 23°F
Humidity 56%
Altimeter 30.16" Hg
Pressure 1021 hPa
Elevation 8
METAR KPGV 200100Z AUTO 00000KT 10SM CLR 03/M05 A3016 RMK AO2
Observed Flight Rules
Jan-20 @ 01:00 UTC
(20 minutes ago)
VFR
Wind Visibility
Calm 10 miles
Clouds
  • Clear skies
Temperature Dewpoint
3°C / 37°F -5°C / 23°F
Humidity Altimeter Pressure
56% 30.16" Hg 1021 hPa